Spacecraft Satellite overpass computed based on SGP4 code. Updated every day at 2:25 LT
Spacecraft : Terra    
         GMT                             Satellite      Satellite     Solar          Solar         Scat ang       
  year-mo-da hr:mn:sc    elevation     azimuth    elevation   azimuth    (bk=180)     
  2018-10-18 08:00:06     12.0             86.0          23.4           142.6         125.2
  2018-10-18 09:38:35     84.1            104.6          29.9           168.9         122.3
  2018-10-18 11:15:44     16.4            303.5          29.1           196.4          83.8
  2018-10-18 19:11:26     23.5             60.8         -34.0           299.7        -999.0
  2018-10-18 20:48:52     54.4            259.5         -45.4           327.6        -999.0
Spacecraft : Aqua    
         GMT                             Satellite      Satellite     Solar          Solar         Scat ang       
  year-mo-da hr:mn:sc    elevation     azimuth    elevation   azimuth    (bk=180)     
  2018-10-18 00:12:42     44.8             98.8         -42.6            40.5        -999.0
  2018-10-18 01:50:16     27.5            297.3         -30.0            66.3        -999.0
  2018-10-18 09:46:00     14.0             54.5          30.1           171.0          75.4
  2018-10-18 11:23:02     81.3             73.8          28.8           198.4         113.6
  2018-10-18 13:01:23     14.6            272.2          20.6           223.6         133.5
  2018-10-18 23:17:14     15.4             88.3         -47.6            22.3        -999.0
Spacecraft : CALIPSO    
         GMT                             Satellite      Satellite     Solar          Solar         Scat ang       
  year-mo-da hr:mn:sc    elevation     azimuth    elevation   azimuth    (bk=180)     
  2018-10-18 00:46:11     72.0            103.0         -38.7            50.2        -999.0
  2018-10-18 02:23:06     18.3            301.8         -25.0            73.6        -999.0
  2018-10-18 10:17:09     19.4             58.9          30.5           179.8          75.6
  2018-10-18 11:54:07     66.8            257.6          26.8           206.8         129.6
  2018-10-18 23:46:03     21.5             91.8         -45.4            32.3        -999.0
Spacecraft : CloudSat    
         GMT                             Satellite      Satellite     Solar          Solar         Scat ang       
  year-mo-da hr:mn:sc    elevation     azimuth    elevation   azimuth    (bk=180)     
  2018-10-18 00:47:21     72.7            102.9         -38.6            50.6        -999.0
  2018-10-18 02:24:17     18.1            301.8         -24.8            73.8        -999.0
  2018-10-18 10:18:19     19.2             59.0          30.5           180.2          75.3
  2018-10-18 11:55:17     67.5            257.7          26.8           207.1         129.3
  2018-10-18 23:47:12     21.7             91.8         -45.3            32.6        -999.0
Spacecraft : ISS    
         GMT                             Satellite      Satellite     Solar          Solar         Scat ang       
  year-mo-da hr:mn:sc    elevation     azimuth    elevation   azimuth    (bk=180)     
  2018-10-18 07:17:10     11.3            136.0          18.7           132.5         171.8
  2018-10-18 08:53:04     49.6            153.7          27.7           156.3         158.0
  2018-10-18 10:29:33     67.6            353.1          30.4           183.4          98.3
  2018-10-18 12:06:13     80.3             13.0          25.9           210.0         106.6
  2018-10-18 13:42:33     31.9            212.1          15.6           232.9         155.1